Time;durP1;ratioP1;P1;durP2;ratioP2;P2;SDS_P1;SDS_P2;PMS_P1;PMS_P2;Temp;Humidity;BMP_temperature;BMP_pressure;BME280_temperature;BME280_humidity;BME280_pressure;Samples;Min_cycle;Max_cycle;Signal;HPM_P1;HPM_P2
2022/03/26 00:00:04;;;;;;;41.92;22.05;;;;;;;;;;4999811;28;93129;-77
2022/03/26 00:02:30;;;;;;;43.50;23.73;;;;;;;;;;4995209;28;93273;-76
2022/03/26 00:04:57;;;;;;;49.70;22.63;;;;;;;;;;4996516;28;93867;-76
2022/03/26 00:07:24;;;;;;;43.85;22.70;;;;;;;;;;4996649;28;92422;-76
2022/03/26 00:09:50;;;;;;;41.53;22.20;;;;;;;;;;4999442;28;92885;-76
2022/03/26 00:12:17;;;;;;;39.72;21.88;;;;;;;;;;4998561;28;94798;-76
2022/03/26 00:14:43;;;;;;;44.08;19.60;;;;;;;;;;4996185;28;91565;-77
2022/03/26 00:17:10;;;;;;;43.15;19.92;;;;;;;;;;4996540;28;92407;-76
2022/03/26 00:19:36;;;;;;;32.65;19.00;;;;;;;;;;4996401;28;93588;-77
2022/03/26 00:22:03;;;;;;;36.28;17.40;;;;;;;;;;4997159;28;94659;-77
2022/03/26 00:24:29;;;;;;;37.63;18.63;;;;;;;;;;4995019;28;93102;-76
2022/03/26 00:26:56;;;;;;;31.00;17.17;;;;;;;;;;4996395;28;92280;-76
2022/03/26 00:29:22;;;;;;;33.70;17.98;;;;;;;;;;4995899;28;93425;-76
2022/03/26 00:31:49;;;;;;;40.35;17.95;;;;;;;;;;4994823;28;95103;-76
2022/03/26 00:34:15;;;;;;;39.10;17.10;;;;;;;;;;4996282;28;92449;-76
2022/03/26 00:36:42;;;;;;;32.95;18.02;;;;;;;;;;4995845;28;94952;-75
2022/03/26 00:39:11;;;;;;;34.45;16.70;;;;;;;;;;4996592;28;92311;-77
2022/03/26 00:41:37;;;;;;;39.80;17.65;;;;;;;;;;4996391;28;92156;-76
2022/03/26 00:44:03;;;;;;;36.42;16.67;;;;;;;;;;4998939;28;93435;-77
2022/03/26 00:46:30;;;;;;;38.65;18.00;;;;;;;;;;4994142;28;94806;-76
2022/03/26 00:48:57;;;;;;;39.90;17.92;;;;;;;;;;4995883;28;96030;-77
2022/03/26 00:51:23;;;;;;;34.22;17.02;;;;;;;;;;4995874;28;94019;-77
2022/03/26 00:53:49;;;;;;;38.55;17.70;;;;;;;;;;4996111;28;92255;-78
2022/03/26 00:56:16;;;;;;;42.08;18.73;;;;;;;;;;4995938;28;93137;-75
2022/03/26 00:58:42;;;;;;;37.67;16.55;;;;;;;;;;5015794;28;92797;-74
2022/03/26 01:01:11;;;;;;;37.55;17.63;;;;;;;;;;4998998;28;92267;-77
2022/03/26 01:03:38;;;;;;;33.33;18.67;;;;;;;;;;4999501;28;93056;-75
2022/03/26 01:06:04;;;;;;;37.58;17.38;;;;;;;;;;4994792;28;93522;-75
2022/03/26 01:08:31;;;;;;;38.17;17.75;;;;;;;;;;4996152;28;93624;-78
2022/03/26 01:10:58;;;;;;;32.30;17.30;;;;;;;;;;4958805;28;95649;-76
2022/03/26 01:13:25;;;;;;;38.40;17.98;;;;;;;;;;4994890;28;92414;-75
2022/03/26 01:15:52;;;;;;;29.05;18.77;;;;;;;;;;4995545;28;92886;-76
2022/03/26 01:18:18;;;;;;;35.08;18.42;;;;;;;;;;4995465;28;92940;-75
2022/03/26 01:20:45;;;;;;;32.03;19.02;;;;;;;;;;4998696;28;92203;-74
2022/03/26 01:23:11;;;;;;;38.42;19.27;;;;;;;;;;5000854;28;92892;-77
2022/03/26 01:25:37;;;;;;;39.13;19.45;;;;;;;;;;5001839;28;93720;-78
2022/03/26 01:28:04;;;;;;;40.35;19.85;;;;;;;;;;4999471;28;92685;-76
2022/03/26 01:30:30;;;;;;;35.78;19.70;;;;;;;;;;4998894;28;93079;-77
2022/03/26 01:32:57;;;;;;;37.10;19.60;;;;;;;;;;4998982;28;92295;-78
2022/03/26 01:35:23;;;;;;;41.38;20.27;;;;;;;;;;4997303;28;94773;-79
2022/03/26 01:37:50;;;;;;;43.17;21.20;;;;;;;;;;4998512;28;92771;-76
2022/03/26 01:40:16;;;;;;;50.13;21.85;;;;;;;;;;4998100;28;92396;-77
2022/03/26 01:42:43;;;;;;;41.35;21.63;;;;;;;;;;4998882;28;93570;-77
2022/03/26 01:45:12;;;;;;;45.78;22.13;;;;;;;;;;4998456;28;93063;-76
2022/03/26 01:47:39;;;;;;;49.20;22.08;;;;;;;;;;5001980;28;92206;-76
2022/03/26 01:50:06;;;;;;;43.83;22.65;;;;;;;;;;4998569;28;93632;-76
2022/03/26 01:52:32;;;;;;;42.25;22.17;;;;;;;;;;4999163;28;91861;-76
2022/03/26 01:54:59;;;;;;;44.22;21.67;;;;;;;;;;4998079;28;93417;-76
2022/03/26 01:57:25;;;;;;;40.63;22.42;;;;;;;;;;4998131;28;94938;-76
2022/03/26 01:59:52;;;;;;;46.92;23.75;;;;;;;;;;4996984;28;94751;-77
2022/03/26 02:02:18;;;;;;;45.65;24.45;;;;;;;;;;4997030;28;98650;-76
2022/03/26 02:04:45;;;;;;;59.80;24.85;;;;;;;;;;4998268;28;93845;-76
2022/03/26 02:07:11;;;;;;;51.78;24.90;;;;;;;;;;4998206;28;92173;-76
2022/03/26 02:09:38;;;;;;;43.78;23.77;;;;;;;;;;5000825;28;93156;-76
2022/03/26 02:12:23;;;;;;;48.17;25.70;;;;;;;;;;4998367;28;92140;-76
2022/03/26 02:14:50;;;;;;;48.78;26.42;;;;;;;;;;4997430;28;93243;-76
2022/03/26 02:17:17;;;;;;;49.25;24.45;;;;;;;;;;4998720;28;92972;-76
2022/03/26 02:19:53;;;;;;;49.03;25.35;;;;;;;;;;4998349;28;92357;-76
2022/03/26 02:22:21;;;;;;;49.40;24.48;;;;;;;;;;4998007;28;92755;-76
2022/03/26 02:24:48;;;;;;;50.05;23.90;;;;;;;;;;4996334;28;95957;-75
2022/03/26 02:27:18;;;;;;;51.13;25.65;;;;;;;;;;4998106;28;92199;-75
2022/03/26 02:29:45;;;;;;;49.33;24.60;;;;;;;;;;4998243;28;93928;-77
2022/03/26 02:32:11;;;;;;;50.40;26.40;;;;;;;;;;5005443;28;93765;-77
2022/03/26 02:34:38;;;;;;;58.15;26.98;;;;;;;;;;4996945;28;93476;-75
2022/03/26 02:37:25;;;;;;;55.22;26.42;;;;;;;;;;4997569;28;93947;-76
2022/03/26 02:39:51;;;;;;;57.90;26.30;;;;;;;;;;4997727;28;92398;-76
2022/03/26 02:42:18;;;;;;;55.55;28.05;;;;;;;;;;4998069;28;93620;-77
2022/03/26 02:44:44;;;;;;;56.67;28.83;;;;;;;;;;4997327;28;93496;-77
2022/03/26 02:47:11;;;;;;;57.10;27.42;;;;;;;;;;4997516;28;92426;-76
2022/03/26 02:49:38;;;;;;;50.65;27.83;;;;;;;;;;4996095;28;94951;-77
2022/03/26 02:52:04;;;;;;;63.33;27.92;;;;;;;;;;4997436;28;93719;-77
2022/03/26 02:54:31;;;;;;;59.33;29.33;;;;;;;;;;5000352;28;92294;-78
2022/03/26 02:56:57;;;;;;;56.72;26.45;;;;;;;;;;4996539;28;93556;-76
2022/03/26 02:59:25;;;;;;;62.90;28.27;;;;;;;;;;4997183;28;92311;-76
2022/03/26 03:01:54;;;;;;;45.30;23.50;;;;;;;;;;4997479;28;92996;-76
2022/03/26 03:04:22;;;;;;;45.42;23.33;;;;;;;;;;4997374;28;94137;-76
2022/03/26 03:06:49;;;;;;;50.75;24.20;;;;;;;;;;5004126;28;92042;-76
2022/03/26 03:09:15;;;;;;;42.72;22.08;;;;;;;;;;5015671;28;92201;-77
2022/03/26 03:11:42;;;;;;;44.42;21.52;;;;;;;;;;4997510;28;93742;-75
2022/03/26 03:14:08;;;;;;;47.92;23.10;;;;;;;;;;4998287;28;94725;-76
2022/03/26 03:16:36;;;;;;;41.58;22.75;;;;;;;;;;4997418;28;93114;-77
2022/03/26 03:19:04;;;;;;;44.33;23.27;;;;;;;;;;4997452;28;92349;-77
2022/03/26 03:21:30;;;;;;;38.95;23.05;;;;;;;;;;4997055;28;93632;-76
2022/03/26 03:23:57;;;;;;;47.88;23.83;;;;;;;;;;4997247;28;93543;-77
2022/03/26 03:26:23;;;;;;;41.03;22.83;;;;;;;;;;4997201;28;92835;-78
2022/03/26 03:28:50;;;;;;;52.75;22.52;;;;;;;;;;4996678;28;92655;-76
2022/03/26 03:31:16;;;;;;;38.88;20.98;;;;;;;;;;4997589;28;92875;-75
2022/03/26 03:33:43;;;;;;;46.90;22.15;;;;;;;;;;4996700;28;92355;-75
2022/03/26 03:36:09;;;;;;;41.88;20.80;;;;;;;;;;4998975;28;93264;-76
2022/03/26 03:38:36;;;;;;;39.67;21.67;;;;;;;;;;4993091;28;94890;-75
2022/03/26 03:41:04;;;;;;;41.78;21.83;;;;;;;;;;4996004;28;95727;-76
2022/03/26 03:43:30;;;;;;;44.28;22.45;;;;;;;;;;5004702;28;92944;-75
2022/03/26 03:45:57;;;;;;;47.72;22.10;;;;;;;;;;4997758;28;92404;-76
2022/03/26 03:48:23;;;;;;;48.38;22.90;;;;;;;;;;4996874;28;93792;-75
2022/03/26 03:50:49;;;;;;;47.13;23.58;;;;;;;;;;4996596;28;93461;-76
2022/03/26 03:53:17;;;;;;;49.47;24.67;;;;;;;;;;4997060;28;92228;-76
2022/03/26 03:55:43;;;;;;;52.45;24.05;;;;;;;;;;4996840;28;93704;-74
2022/03/26 03:58:10;;;;;;;51.50;23.40;;;;;;;;;;4999760;28;92958;-75
2022/03/26 04:00:36;;;;;;;52.65;24.52;;;;;;;;;;4996580;28;93038;-77
2022/03/26 04:03:03;;;;;;;50.15;24.83;;;;;;;;;;4994991;28;95564;-76
2022/03/26 04:05:29;;;;;;;49.95;25.50;;;;;;;;;;4995540;28;92378;-77
2022/03/26 04:07:56;;;;;;;46.90;23.67;;;;;;;;;;4977772;28;92973;-76
2022/03/26 04:10:22;;;;;;;46.78;23.85;;;;;;;;;;4996663;28;93271;-75
2022/03/26 04:12:50;;;;;;;49.58;25.05;;;;;;;;;;4995102;28;92344;-76
2022/03/26 04:15:16;;;;;;;51.60;24.98;;;;;;;;;;4996505;28;93583;-76
2022/03/26 04:17:43;;;;;;;47.85;25.33;;;;;;;;;;4996463;28;93060;-76
2022/03/26 04:20:10;;;;;;;46.05;24.10;;;;;;;;;;4999934;28;92656;-76
2022/03/26 04:22:37;;;;;;;47.97;23.48;;;;;;;;;;4996414;28;94390;-76
2022/03/26 04:25:04;;;;;;;59.05;25.40;;;;;;;;;;4995791;28;92273;-76
2022/03/26 04:27:30;;;;;;;48.20;23.83;;;;;;;;;;4994859;28;94753;-75
2022/03/26 04:29:57;;;;;;;48.92;25.42;;;;;;;;;;4996126;28;93621;-75
2022/03/26 04:32:23;;;;;;;51.00;24.90;;;;;;;;;;4996686;28;92308;-76
2022/03/26 04:34:50;;;;;;;49.67;23.15;;;;;;;;;;4996419;28;93715;-75
2022/03/26 04:37:16;;;;;;;53.35;26.10;;;;;;;;;;4995991;28;94070;-75
2022/03/26 04:39:43;;;;;;;47.60;24.88;;;;;;;;;;4993186;28;92384;-76
2022/03/26 04:42:09;;;;;;;52.67;25.50;;;;;;;;;;4997193;28;92873;-75
2022/03/26 04:44:36;;;;;;;50.92;24.80;;;;;;;;;;4994694;28;91501;-76
2022/03/26 04:47:02;;;;;;;47.30;25.77;;;;;;;;;;4993944;28;92401;-75
2022/03/26 04:49:29;;;;;;;57.88;24.95;;;;;;;;;;4993884;28;94291;-75
2022/03/26 04:51:55;;;;;;;48.45;25.73;;;;;;;;;;4992872;28;95024;-75
2022/03/26 04:54:22;;;;;;;45.25;23.95;;;;;;;;;;4991913;28;94832;-78
2022/03/26 04:56:50;;;;;;;52.67;25.25;;;;;;;;;;4994065;28;93708;-74
2022/03/26 04:59:17;;;;;;;49.75;25.70;;;;;;;;;;4963503;28;92333;-75
2022/03/26 05:01:44;;;;;;;54.75;25.73;;;;;;;;;;4997817;28;92669;-75
2022/03/26 05:04:11;;;;;;;47.05;24.00;;;;;;;;;;5000191;28;93529;-76
2022/03/26 05:06:38;;;;;;;49.67;25.33;;;;;;;;;;4997434;28;93451;-75
2022/03/26 05:09:04;;;;;;;51.72;25.42;;;;;;;;;;4997678;28;93324;-74
2022/03/26 05:11:30;;;;;;;51.70;25.67;;;;;;;;;;4998947;28;92307;-75
2022/03/26 05:13:57;;;;;;;50.38;25.30;;;;;;;;;;4998124;28;95834;-75
2022/03/26 05:16:23;;;;;;;58.25;26.05;;;;;;;;;;5003983;28;96171;-74
2022/03/26 05:18:50;;;;;;;61.20;27.63;;;;;;;;;;5011672;28;92052;-75
2022/03/26 05:21:16;;;;;;;54.10;25.77;;;;;;;;;;4998832;28;93786;-77
2022/03/26 05:23:43;;;;;;;53.72;26.92;;;;;;;;;;5001913;28;94700;-75
2022/03/26 05:26:09;;;;;;;58.58;27.38;;;;;;;;;;4999098;28;92953;-75
2022/03/26 05:28:36;;;;;;;58.33;26.65;;;;;;;;;;4999071;28;92985;-76
2022/03/26 05:31:02;;;;;;;57.92;27.27;;;;;;;;;;4998809;28;92320;-75
2022/03/26 05:33:29;;;;;;;49.13;26.00;;;;;;;;;;4999459;28;93547;-77
2022/03/26 05:35:55;;;;;;;51.92;25.30;;;;;;;;;;4998370;28;93920;-77
2022/03/26 05:38:22;;;;;;;59.95;25.67;;;;;;;;;;4998747;28;92262;-77
2022/03/26 05:40:49;;;;;;;66.65;26.10;;;;;;;;;;4997643;28;94610;-78
2022/03/26 05:43:15;;;;;;;49.05;25.40;;;;;;;;;;4998659;28;93669;-77
2022/03/26 05:45:42;;;;;;;59.38;26.92;;;;;;;;;;5001566;28;92296;-77
2022/03/26 05:48:08;;;;;;;53.45;26.30;;;;;;;;;;4998880;28;93305;-77
2022/03/26 05:50:35;;;;;;;55.97;28.10;;;;;;;;;;4980485;28;92326;-77
2022/03/26 05:53:02;;;;;;;50.67;26.00;;;;;;;;;;4998704;28;93375;-78
2022/03/26 05:55:28;;;;;;;60.67;27.13;;;;;;;;;;4998668;28;93481;-77
2022/03/26 05:57:55;;;;;;;52.35;26.17;;;;;;;;;;4998885;28;91549;-77
2022/03/26 06:00:21;;;;;;;54.60;25.67;;;;;;;;;;4999229;28;92158;-77
2022/03/26 06:02:48;;;;;;;50.95;25.83;;;;;;;;;;5002303;28;93778;-77
2022/03/26 06:05:16;;;;;;;49.72;25.50;;;;;;;;;;5000657;28;94829;-76
2022/03/26 06:07:42;;;;;;;53.63;26.27;;;;;;;;;;5001209;28;96273;-78
2022/03/26 06:10:08;;;;;;;58.03;27.40;;;;;;;;;;4996925;28;92248;-77
2022/03/26 06:12:41;;;;;;;55.95;26.95;;;;;;;;;;4998332;28;92885;-77
2022/03/26 06:15:09;;;;;;;51.08;27.38;;;;;;;;;;4998261;28;92908;-78
2022/03/26 06:17:56;;;;;;;54.03;27.13;;;;;;;;;;4998384;28;92285;-75
2022/03/26 06:20:23;;;;;;;55.38;26.20;;;;;;;;;;4998362;28;92913;-76
2022/03/26 06:22:49;;;;;;;54.63;27.45;;;;;;;;;;4998440;28;91863;-76
2022/03/26 06:25:16;;;;;;;52.78;27.35;;;;;;;;;;4998054;28;92253;-76
2022/03/26 06:27:42;;;;;;;57.95;27.83;;;;;;;;;;4997998;28;93316;-76
2022/03/26 06:30:10;;;;;;;51.97;28.23;;;;;;;;;;4998918;28;95630;-76
2022/03/26 06:32:36;;;;;;;56.13;29.02;;;;;;;;;;4998156;28;95242;-75
2022/03/26 06:35:03;;;;;;;51.85;27.20;;;;;;;;;;4996695;28;94763;-76
2022/03/26 06:37:29;;;;;;;49.17;26.27;;;;;;;;;;4997836;28;92274;-75
2022/03/26 06:39:56;;;;;;;57.17;28.17;;;;;;;;;;4993924;28;94486;-75
2022/03/26 06:42:22;;;;;;;52.92;28.70;;;;;;;;;;4996435;28;93756;-73
2022/03/26 06:44:48;;;;;;;52.08;27.30;;;;;;;;;;4996944;28;92324;-77
2022/03/26 06:47:15;;;;;;;48.70;27.15;;;;;;;;;;4998050;28;93377;-74
2022/03/26 06:49:42;;;;;;;51.10;27.90;;;;;;;;;;4997688;28;93736;-75
2022/03/26 06:52:09;;;;;;;52.92;28.25;;;;;;;;;;5000749;28;92338;-76
2022/03/26 06:54:35;;;;;;;48.65;29.88;;;;;;;;;;4995910;28;95583;-74
2022/03/26 06:57:02;;;;;;;55.05;30.25;;;;;;;;;;4997652;28;92280;-75
2022/03/26 06:59:28;;;;;;;56.58;30.85;;;;;;;;;;4997084;28;93663;-71
2022/03/26 07:01:55;;;;;;;58.08;32.33;;;;;;;;;;4997295;28;93771;-74
2022/03/26 07:04:21;;;;;;;60.88;31.60;;;;;;;;;;4996973;28;92265;-74
2022/03/26 07:06:48;;;;;;;54.95;30.58;;;;;;;;;;4997132;28;94874;-74
2022/03/26 07:09:14;;;;;;;57.33;32.53;;;;;;;;;;4997144;28;93631;-75
2022/03/26 07:11:40;;;;;;;59.38;33.55;;;;;;;;;;4996592;28;91938;-73
2022/03/26 07:14:07;;;;;;;54.42;32.88;;;;;;;;;;5000407;28;92815;-75
2022/03/26 07:16:33;;;;;;;63.60;34.00;;;;;;;;;;4997176;28;92235;-74
2022/03/26 07:19:00;;;;;;;74.05;34.35;;;;;;;;;;4995638;28;94789;-76
2022/03/26 07:21:27;;;;;;;62.25;33.58;;;;;;;;;;4996404;28;94879;-77
2022/03/26 07:23:53;;;;;;;65.80;34.90;;;;;;;;;;4997311;28;92150;-76
2022/03/26 07:26:20;;;;;;;65.75;35.03;;;;;;;;;;4997282;28;93463;-75
2022/03/26 07:28:46;;;;;;;68.43;35.55;;;;;;;;;;5010298;28;95383;-76
2022/03/26 07:31:13;;;;;;;67.00;35.03;;;;;;;;;;4998626;28;92191;-77
2022/03/26 07:33:40;;;;;;;62.85;35.50;;;;;;;;;;5000121;28;93498;-74
2022/03/26 07:36:06;;;;;;;69.10;35.85;;;;;;;;;;4997587;28;91444;-76
2022/03/26 07:38:32;;;;;;;66.53;34.70;;;;;;;;;;4996650;28;92876;-76
2022/03/26 07:40:59;;;;;;;64.68;36.03;;;;;;;;;;4996526;28;94012;-75
2022/03/26 07:43:25;;;;;;;64.18;36.30;;;;;;;;;;4995393;28;96154;-77
2022/03/26 07:45:52;;;;;;;63.38;35.25;;;;;;;;;;4995349;28;99312;-75
2022/03/26 07:48:18;;;;;;;69.47;36.85;;;;;;;;;;4996756;28;93756;-78
2022/03/26 07:50:45;;;;;;;70.45;37.53;;;;;;;;;;4996849;28;93155;-79
2022/03/26 07:53:13;;;;;;;71.60;36.83;;;;;;;;;;4996853;28;92718;-77
2022/03/26 07:55:39;;;;;;;78.70;37.03;;;;;;;;;;4999252;28;93037;-78
2022/03/26 07:58:06;;;;;;;71.82;36.63;;;;;;;;;;4996553;28;93557;-78
2022/03/26 08:00:32;;;;;;;73.63;36.55;;;;;;;;;;4997002;28;92204;-79
2022/03/26 08:02:59;;;;;;;71.68;36.67;;;;;;;;;;4996523;28;92339;-76
2022/03/26 08:05:26;;;;;;;75.88;36.88;;;;;;;;;;4996395;28;93567;-77
2022/03/26 08:07:53;;;;;;;80.18;38.55;;;;;;;;;;4994816;28;95814;-76
2022/03/26 08:10:19;;;;;;;75.15;38.00;;;;;;;;;;4996064;28;92363;-76
2022/03/26 08:12:46;;;;;;;82.47;40.70;;;;;;;;;;4996504;28;92694;-77
2022/03/26 08:15:12;;;;;;;75.78;39.83;;;;;;;;;;4995649;28;93190;-76
2022/03/26 08:17:39;;;;;;;81.22;40.60;;;;;;;;;;4999003;28;92377;-76
2022/03/26 08:20:07;;;;;;;73.57;40.05;;;;;;;;;;4996416;28;93334;-77
2022/03/26 08:22:34;;;;;;;81.60;40.63;;;;;;;;;;4996607;28;92312;-76
2022/03/26 08:25:01;;;;;;;75.85;38.78;;;;;;;;;;4999954;28;93261;-75
2022/03/26 08:27:27;;;;;;;75.45;38.15;;;;;;;;;;5004953;28;93683;-78
2022/03/26 08:29:54;;;;;;;81.55;38.83;;;;;;;;;;4999563;28;92540;-76
2022/03/26 08:32:20;;;;;;;67.95;36.75;;;;;;;;;;4999423;28;94556;-78
2022/03/26 08:34:47;;;;;;;72.80;38.00;;;;;;;;;;5000813;28;93765;-75
2022/03/26 08:37:13;;;;;;;76.30;38.67;;;;;;;;;;5001060;28;92245;-79
2022/03/26 08:39:40;;;;;;;68.15;32.88;;;;;;;;;;5002866;28;93676;-76
2022/03/26 08:42:07;;;;;;;62.38;35.47;;;;;;;;;;5000535;28;92516;-78
2022/03/26 08:44:34;;;;;;;64.10;34.45;;;;;;;;;;5000404;28;92649;-77
2022/03/26 08:47:04;;;;;;;61.25;34.97;;;;;;;;;;4998083;28;94467;-77
2022/03/26 08:49:31;;;;;;;67.32;36.08;;;;;;;;;;5000190;28;91577;-73
2022/03/26 08:51:58;;;;;;;66.32;33.38;;;;;;;;;;4999509;28;93700;-78
2022/03/26 08:54:24;;;;;;;63.45;34.20;;;;;;;;;;4997792;28;94189;-77
2022/03/26 08:56:51;;;;;;;62.95;33.47;;;;;;;;;;4998051;28;94787;-81
2022/03/26 08:59:17;;;;;;;58.47;31.80;;;;;;;;;;4999667;28;95413;-80
2022/03/26 09:01:44;;;;;;;59.95;33.58;;;;;;;;;;5001834;28;93233;-81
2022/03/26 09:04:12;;;;;;;58.55;31.83;;;;;;;;;;4998839;28;93273;-81
2022/03/26 09:06:39;;;;;;;50.60;29.08;;;;;;;;;;4997389;28;94995;-82
2022/03/26 09:09:06;;;;;;;46.20;25.80;;;;;;;;;;4998976;28;93464;-80
2022/03/26 09:11:34;;;;;;;56.08;31.45;;;;;;;;;;4998533;28;93575;-80
2022/03/26 09:14:02;;;;;;;62.63;32.08;;;;;;;;;;4998670;28;92326;-79
2022/03/26 09:16:30;;;;;;;54.80;32.50;;;;;;;;;;4998989;28;92346;-81
2022/03/26 09:18:59;;;;;;;57.78;32.00;;;;;;;;;;4979263;28;95698;-78
2022/03/26 09:21:26;;;;;;;53.80;30.67;;;;;;;;;;4997375;28;95651;-79
2022/03/26 09:23:52;;;;;;;60.45;34.78;;;;;;;;;;5000078;28;92473;-77
2022/03/26 09:26:19;;;;;;;62.38;35.88;;;;;;;;;;4998959;28;93378;-78
2022/03/26 09:28:45;;;;;;;65.03;35.70;;;;;;;;;;4997810;28;92512;-78
2022/03/26 09:31:12;;;;;;;64.90;35.08;;;;;;;;;;5000665;28;93730;-82
2022/03/26 09:33:38;;;;;;;65.15;35.47;;;;;;;;;;5000149;28;94137;-79
2022/03/26 09:36:07;;;;;;;58.42;33.83;;;;;;;;;;5003754;28;92254;-76
2022/03/26 09:38:33;;;;;;;57.70;35.10;;;;;;;;;;5011038;28;92931;-80
2022/03/26 09:41:00;;;;;;;59.42;34.05;;;;;;;;;;5001660;28;92961;-80
2022/03/26 09:43:28;;;;;;;60.33;34.47;;;;;;;;;;5001416;28;93284;-79
2022/03/26 09:45:54;;;;;;;56.10;33.22;;;;;;;;;;4971020;28;95937;-81
2022/03/26 09:48:21;;;;;;;56.70;33.22;;;;;;;;;;4997943;28;92500;-77
2022/03/26 09:50:47;;;;;;;53.55;32.38;;;;;;;;;;4993226;28;93081;-78
2022/03/26 09:53:17;;;;;;;57.85;31.92;;;;;;;;;;4997627;28;93475;-78
2022/03/26 09:55:43;;;;;;;50.50;31.50;;;;;;;;;;4992925;28;92225;-77
2022/03/26 09:58:09;;;;;;;50.83;32.53;;;;;;;;;;4992914;28;93678;-79
2022/03/26 10:00:36;;;;;;;56.70;32.33;;;;;;;;;;4998211;28;93229;-77
2022/03/26 10:03:02;;;;;;;45.83;28.42;;;;;;;;;;4997994;28;91612;-76
2022/03/26 10:05:34;;;;;;;49.67;28.02;;;;;;;;;;4997380;28;92749;-77
2022/03/26 10:08:13;;;;;;;48.03;29.47;;;;;;;;;;4994194;28;92391;-78
2022/03/26 10:10:44;;;;;;;47.15;29.85;;;;;;;;;;4993688;28;95293;-78
2022/03/26 10:13:12;;;;;;;50.20;30.20;;;;;;;;;;4997272;28;93085;-77
2022/03/26 10:15:58;;;;;;;52.35;31.30;;;;;;;;;;4992522;28;92422;-78
2022/03/26 10:18:24;;;;;;;56.58;31.17;;;;;;;;;;4997777;28;92817;-76
2022/03/26 10:20:59;;;;;;;57.13;31.38;;;;;;;;;;4997726;28;93248;-76
2022/03/26 10:23:26;;;;;;;54.05;30.63;;;;;;;;;;4997089;28;92215;-78
2022/03/26 10:26:09;;;;;;;54.47;30.27;;;;;;;;;;4996912;28;95271;-78
2022/03/26 10:28:35;;;;;;;47.58;27.70;;;;;;;;;;5000708;28;92919;-72
2022/03/26 10:34:12;;;;;;;54.30;29.27;;;;;;;;;;4996017;28;93454;-78
2022/03/26 10:36:40;;;;;;;50.85;27.85;;;;;;;;;;4992438;28;94762;-78
2022/03/26 10:39:07;;;;;;;49.28;26.77;;;;;;;;;;4997098;28;95213;-79
2022/03/26 10:41:34;;;;;;;51.55;27.35;;;;;;;;;;4996130;28;94119;-74
2022/03/26 10:44:08;;;;;;;42.22;26.35;;;;;;;;;;4996489;28;92272;-74
2022/03/26 10:46:41;;;;;;;49.65;27.10;;;;;;;;;;4996514;28;92715;-78
2022/03/26 10:49:08;;;;;;;50.28;24.92;;;;;;;;;;4997482;28;92939;-77
2022/03/26 10:51:35;;;;;;;52.22;26.08;;;;;;;;;;5003351;28;92524;-76
2022/03/26 10:54:09;;;;;;;49.38;26.02;;;;;;;;;;4998802;28;92693;-79
2022/03/26 10:56:37;;;;;;;52.03;26.42;;;;;;;;;;4996414;28;92263;-74
2022/03/26 10:59:03;;;;;;;47.05;26.40;;;;;;;;;;4996435;28;93373;-75
2022/03/26 11:01:31;;;;;;;54.60;27.33;;;;;;;;;;4994453;28;95632;-78
2022/03/26 11:03:58;;;;;;;48.53;24.50;;;;;;;;;;4996371;28;92423;-78
2022/03/26 11:06:25;;;;;;;43.03;25.02;;;;;;;;;;4996930;28;92516;-78
2022/03/26 11:08:59;;;;;;;45.78;26.40;;;;;;;;;;4996577;28;95219;-79
2022/03/26 11:11:29;;;;;;;41.30;21.35;;;;;;;;;;4993922;28;92420;-78
2022/03/26 11:13:59;;;;;;;43.03;22.25;;;;;;;;;;4998853;28;93600;-81
2022/03/26 11:16:49;;;;;;;45.38;20.83;;;;;;;;;;4996690;28;93067;-75
2022/03/26 11:19:16;;;;;;;46.65;22.85;;;;;;;;;;4996490;28;93865;-75
2022/03/26 11:21:51;;;;;;;42.22;24.65;;;;;;;;;;4996408;28;93966;-76
2022/03/26 11:24:24;;;;;;;46.00;25.70;;;;;;;;;;4996104;28;92383;-77
2022/03/26 11:26:53;;;;;;;49.15;27.70;;;;;;;;;;4994671;28;94652;-76
2022/03/26 11:29:38;;;;;;;48.05;25.27;;;;;;;;;;4995979;28;94632;-81
2022/03/26 11:32:25;;;;;;;50.38;26.42;;;;;;;;;;4994008;28;92299;-78
2022/03/26 11:35:02;;;;;;;45.95;24.30;;;;;;;;;;4998830;28;92589;-80
2022/03/26 11:37:29;;;;;;;44.03;25.08;;;;;;;;;;4991869;28;93752;-79
2022/03/26 11:39:59;;;;;;;44.90;26.17;;;;;;;;;;4974517;28;96592;-77
2022/03/26 11:42:31;;;;;;;53.17;26.10;;;;;;;;;;4996637;28;92369;-75
2022/03/26 11:50:46;;;;;;;47.63;25.85;;;;;;;;;;4993970;28;93471;-77
2022/03/26 11:53:31;;;;;;;47.60;27.35;;;;;;;;;;4993788;28;94890;-78
2022/03/26 11:55:58;;;;;;;41.72;25.05;;;;;;;;;;4995266;28;95076;-83
2022/03/26 11:58:26;;;;;;;49.00;25.90;;;;;;;;;;4997273;28;94318;-78
2022/03/26 12:00:57;;;;;;;44.50;25.83;;;;;;;;;;4996833;28;93365;-76
2022/03/26 12:03:24;;;;;;;52.27;27.97;;;;;;;;;;4999878;28;93431;-76
2022/03/26 12:08:55;;;;;;;56.97;22.95;;;;;;;;;;4995935;28;93731;-76
2022/03/26 12:11:25;;;;;;;37.33;20.38;;;;;;;;;;4995256;28;94840;-76
2022/03/26 12:13:59;;;;;;;40.65;20.48;;;;;;;;;;4994461;28;93228;-80
2022/03/26 12:16:46;;;;;;;40.58;23.60;;;;;;;;;;4995197;28;94487;-79
2022/03/26 12:19:32;;;;;;;28.75;17.35;;;;;;;;;;4990665;28;96388;-79
2022/03/26 12:21:59;;;;;;;37.15;20.35;;;;;;;;;;4998600;28;92898;-76
2022/03/26 12:24:28;;;;;;;34.08;18.38;;;;;;;;;;4989949;28;93737;-79
2022/03/26 12:27:05;;;;;;;31.25;16.65;;;;;;;;;;4995758;28;92945;-78
2022/03/26 12:29:31;;;;;;;30.02;15.55;;;;;;;;;;4991126;28;92994;-78
2022/03/26 12:32:00;;;;;;;32.70;16.20;;;;;;;;;;4995583;28;93378;-78
2022/03/26 12:34:28;;;;;;;28.15;16.02;;;;;;;;;;4995355;28;93441;-77
2022/03/26 12:37:04;;;;;;;28.42;16.30;;;;;;;;;;4996234;28;93349;-78
2022/03/26 12:39:30;;;;;;;25.58;13.50;;;;;;;;;;4994883;28;93681;-78
2022/03/26 12:41:57;;;;;;;30.25;12.68;;;;;;;;;;4995747;28;92373;-79
2022/03/26 12:44:23;;;;;;;29.77;16.08;;;;;;;;;;4996583;28;94950;-78
2022/03/26 12:46:50;;;;;;;26.33;17.08;;;;;;;;;;4995048;28;92404;-82
2022/03/26 12:49:20;;;;;;;26.52;14.32;;;;;;;;;;4995621;28;93329;-76
2022/03/26 12:51:50;;;;;;;26.90;14.57;;;;;;;;;;4995588;28;92767;-78
2022/03/26 12:54:18;;;;;;;23.45;12.95;;;;;;;;;;4995864;28;92264;-78
2022/03/26 12:56:45;;;;;;;19.42;10.68;;;;;;;;;;4996138;28;93346;-78
2022/03/26 12:59:14;;;;;;;24.02;11.88;;;;;;;;;;4995766;28;93700;-79
2022/03/26 13:01:42;;;;;;;20.02;10.48;;;;;;;;;;4996658;28;91477;-76
2022/03/26 13:04:09;;;;;;;21.38;12.38;;;;;;;;;;4995895;28;92526;-79
2022/03/26 13:06:35;;;;;;;21.77;12.98;;;;;;;;;;4998268;28;93822;-79
2022/03/26 13:09:02;;;;;;;22.65;12.25;;;;;;;;;;4994579;28;94652;-76
2022/03/26 13:11:30;;;;;;;24.48;13.48;;;;;;;;;;4995816;28;92260;-78
2022/03/26 13:13:58;;;;;;;24.30;13.30;;;;;;;;;;4994471;28;92303;-78
2022/03/26 13:16:26;;;;;;;31.25;13.43;;;;;;;;;;4996693;28;93397;-78
2022/03/26 13:19:13;;;;;;;19.50;13.63;;;;;;;;;;5001666;28;93943;-78
2022/03/26 13:21:42;;;;;;;21.95;13.23;;;;;;;;;;5000024;28;92463;-79
2022/03/26 13:24:10;;;;;;;27.88;14.10;;;;;;;;;;4999200;28;93285;-79
2022/03/26 13:26:50;;;;;;;29.05;14.77;;;;;;;;;;4999289;28;94371;-80
2022/03/26 13:29:21;;;;;;;24.17;13.25;;;;;;;;;;5001979;28;92290;-78
2022/03/26 13:32:00;;;;;;;17.40;12.00;;;;;;;;;;4998465;28;95236;-79
2022/03/26 13:34:28;;;;;;;25.73;14.57;;;;;;;;;;4997410;28;94781;-78
2022/03/26 13:36:55;;;;;;;29.02;14.45;;;;;;;;;;4998688;28;95631;-79
2022/03/26 13:39:24;;;;;;;24.52;14.30;;;;;;;;;;4997455;28;93965;-77
2022/03/26 13:41:51;;;;;;;28.88;14.65;;;;;;;;;;4998836;28;92380;-77
2022/03/26 13:44:19;;;;;;;32.42;16.40;;;;;;;;;;4996588;28;92960;-78
2022/03/26 13:46:46;;;;;;;24.73;13.30;;;;;;;;;;4997451;28;93683;-77
2022/03/26 13:49:24;;;;;;;22.17;11.63;;;;;;;;;;5003527;28;92274;-76
2022/03/26 13:51:52;;;;;;;19.55;12.63;;;;;;;;;;5013429;28;91873;-76
2022/03/26 13:54:26;;;;;;;32.65;15.35;;;;;;;;;;4997830;28;92447;-75
2022/03/26 13:56:55;;;;;;;31.63;17.40;;;;;;;;;;4991364;28;94251;-77
2022/03/26 13:59:24;;;;;;;34.85;16.45;;;;;;;;;;4996386;28;95317;-77
2022/03/26 14:01:51;;;;;;;33.55;16.35;;;;;;;;;;4997894;28;92651;-79
2022/03/26 14:04:24;;;;;;;32.78;16.42;;;;;;;;;;4997188;28;94363;-76
2022/03/26 14:06:52;;;;;;;42.45;15.77;;;;;;;;;;4997074;28;93968;-77
2022/03/26 14:09:19;;;;;;;33.15;15.82;;;;;;;;;;4997623;28;92827;-77
2022/03/26 14:11:46;;;;;;;29.00;15.18;;;;;;;;;;5000281;28;93361;-78
2022/03/26 14:14:12;;;;;;;28.85;15.48;;;;;;;;;;4997593;28;92353;-77
2022/03/26 14:16:38;;;;;;;39.88;17.98;;;;;;;;;;4997737;28;92831;-75
2022/03/26 14:19:05;;;;;;;43.20;17.90;;;;;;;;;;4997515;28;93752;-77
2022/03/26 14:21:32;;;;;;;58.15;19.70;;;;;;;;;;4993509;28;92386;-77
2022/03/26 14:23:58;;;;;;;36.55;19.20;;;;;;;;;;4996235;28;94588;-77
2022/03/26 14:26:25;;;;;;;42.30;20.42;;;;;;;;;;4997035;28;93613;-76
2022/03/26 14:28:51;;;;;;;44.35;23.13;;;;;;;;;;4988468;28;93805;-81
2022/03/26 14:31:17;;;;;;;37.00;20.77;;;;;;;;;;4998321;28;93941;-76